createdAt,value
2018-01-23T00:00:07.553Z,59.60
2018-01-23T00:02:35.856Z,59.70
2018-01-23T00:05:03.361Z,59.50
2018-01-23T00:07:30.896Z,59.70
2018-01-23T00:09:58.404Z,59.60
2018-01-23T00:12:26.685Z,60.40
2018-01-23T00:14:54.997Z,59.60
2018-01-23T00:17:22.527Z,59.60
2018-01-23T00:19:50.797Z,59.60
2018-01-23T00:22:19.106Z,59.70
2018-01-23T00:24:46.601Z,59.60
2018-01-23T00:27:14.129Z,59.60
2018-01-23T00:29:41.678Z,59.60
2018-01-23T00:32:09.209Z,59.60
2018-01-23T00:34:37.477Z,59.60
2018-01-23T00:37:05.904Z,59.70
2018-01-23T00:39:33.409Z,59.60
2018-01-23T00:42:00.963Z,59.60
2018-01-23T00:44:28.545Z,60.20
2018-01-23T00:46:56.830Z,59.60
2018-01-23T00:49:25.174Z,59.60
2018-01-23T00:51:52.704Z,59.60
2018-01-23T00:54:20.206Z,59.60
2018-01-23T00:56:49.241Z,59.60
2018-01-23T00:59:16.797Z,59.60
2018-01-23T01:01:44.339Z,59.60
2018-01-23T01:04:12.633Z,59.70
2018-01-23T01:06:40.177Z,59.70
2018-01-23T01:09:08.461Z,59.70
2018-01-23T01:11:36.798Z,59.70
2018-01-23T01:14:04.366Z,59.50
2018-01-23T01:16:31.874Z,59.70
2018-01-23T01:18:59.397Z,59.70
2018-01-23T01:21:27.765Z,59.70
2018-01-23T01:23:56.134Z,59.70
2018-01-23T01:26:23.663Z,59.60
2018-01-23T01:28:51.233Z,59.60
2018-01-23T01:31:18.741Z,59.60
2018-01-23T01:33:47.021Z,59.70
2018-01-23T01:36:15.353Z,59.70
2018-01-23T01:38:42.881Z,59.70
2018-01-23T01:41:10.409Z,59.70
2018-01-23T01:43:39.145Z,59.70
2018-01-23T01:46:06.676Z,59.70
2018-01-23T01:48:46.925Z,59.70
2018-01-23T01:51:15.218Z,59.80
2018-01-23T01:53:42.721Z,59.70
2018-01-23T01:56:10.260Z,59.80
2018-01-23T01:58:37.797Z,59.80
2018-01-23T02:01:05.780Z,59.80
2018-01-23T02:03:33.325Z,59.70
2018-01-23T02:06:00.859Z,59.70
2018-01-23T02:08:29.157Z,59.70
2018-01-23T02:10:56.713Z,59.70
2018-01-23T02:13:24.225Z,59.70
2018-01-23T02:15:51.742Z,59.70
2018-01-23T02:18:19.304Z,59.70
2018-01-23T02:20:46.823Z,59.70
2018-01-23T02:23:15.130Z,59.70
2018-01-23T02:25:42.700Z,59.60
2018-01-23T02:28:10.229Z,59.70
2018-01-23T02:30:37.752Z,59.70
2018-01-23T02:33:05.317Z,59.80
2018-01-23T02:35:32.854Z,59.80
2018-01-23T02:38:00.385Z,59.80
2018-01-23T02:40:27.937Z,59.70
2018-01-23T02:42:56.228Z,59.80
2018-01-23T02:45:23.810Z,59.70
2018-01-23T02:47:51.350Z,59.70
2018-01-23T02:50:18.926Z,59.80
2018-01-23T02:52:46.445Z,60.40
2018-01-23T02:55:14.825Z,59.70
2018-01-23T02:57:42.357Z,59.60
2018-01-23T03:00:09.893Z,60.30
2018-01-23T03:02:37.454Z,59.70
2018-01-23T03:05:04.953Z,59.70
2018-01-23T03:07:32.449Z,59.70
2018-01-23T03:09:59.986Z,59.70
2018-01-23T03:12:28.279Z,59.70
2018-01-23T03:14:55.804Z,59.70
2018-01-23T03:17:23.393Z,59.70
2018-01-23T03:19:50.926Z,59.70
2018-01-23T03:22:18.430Z,59.70
2018-01-23T03:24:45.973Z,59.70
2018-01-23T03:27:13.501Z,59.70
2018-01-23T03:29:41.034Z,59.70
2018-01-23T03:32:08.604Z,59.70
2018-01-23T03:34:36.148Z,59.70
2018-01-23T03:37:03.654Z,59.70
2018-01-23T03:39:31.962Z,59.80
2018-01-23T03:41:59.486Z,59.70
2018-01-23T03:44:28.215Z,59.70
2018-01-23T03:46:55.755Z,59.70
2018-01-23T03:49:23.280Z,59.80
2018-01-23T03:51:50.794Z,59.70
2018-01-23T03:54:18.328Z,59.70
2018-01-23T03:56:45.853Z,59.70
2018-01-23T03:59:13.392Z,59.60
2018-01-23T04:01:40.953Z,59.60
2018-01-23T04:04:08.461Z,59.60
2018-01-23T04:06:36.745Z,59.70
2018-01-23T04:09:04.298Z,59.60
2018-01-23T04:11:32.557Z,59.60
2018-01-23T04:14:00.061Z,59.60
2018-01-23T04:16:28.033Z,59.60
2018-01-23T04:18:55.541Z,59.60
2018-01-23T04:21:23.061Z,59.60
2018-01-23T04:23:50.641Z,59.60
2018-01-23T04:26:18.137Z,59.60
2018-01-23T04:28:46.872Z,59.60
2018-01-23T04:31:14.409Z,59.60
2018-01-23T04:33:41.944Z,59.60
2018-01-23T04:36:10.209Z,59.60
2018-01-23T04:38:38.523Z,59.60
2018-01-23T04:41:06.056Z,59.60
2018-01-23T04:43:34.358Z,59.60
2018-01-23T04:46:01.940Z,59.50
2018-01-23T04:48:29.441Z,59.60
2018-01-23T04:50:56.941Z,59.40
2018-01-23T04:53:24.478Z,59.60
2018-01-23T04:55:52.008Z,59.50
2018-01-23T04:58:19.623Z,59.60
2018-01-23T05:00:47.201Z,59.50
2018-01-23T05:03:14.752Z,59.50
2018-01-23T05:05:42.273Z,59.50
2018-01-23T05:08:10.594Z,59.50
2018-01-23T05:10:38.130Z,59.50
2018-01-23T05:13:05.657Z,59.60
2018-01-23T05:15:34.006Z,59.60
2018-01-23T05:18:01.536Z,59.60
2018-01-23T05:20:29.075Z,59.50
2018-01-23T05:22:56.650Z,59.50
2018-01-23T05:25:24.173Z,59.40
2018-01-23T05:27:52.469Z,59.20
2018-01-23T05:30:20.999Z,59.30
2018-01-23T05:32:48.517Z,59.20
2018-01-23T05:35:16.027Z,59.20
2018-01-23T05:37:43.585Z,59.20
2018-01-23T05:40:11.118Z,59.20
2018-01-23T05:42:38.620Z,59.30
2018-01-23T05:45:06.184Z,59.10
2018-01-23T05:47:33.686Z,59.20
2018-01-23T05:50:01.200Z,59.20
2018-01-23T05:52:29.531Z,59.20
2018-01-23T05:54:57.065Z,59.10
2018-01-23T05:57:25.369Z,59.10
2018-01-23T05:59:52.906Z,59.00
2018-01-23T06:02:20.398Z,59.10
2018-01-23T06:04:47.893Z,59.10
2018-01-23T06:07:15.413Z,59.00
2018-01-23T06:09:42.905Z,59.10
2018-01-23T06:12:10.481Z,59.00
2018-01-23T06:14:38.788Z,59.00
2018-01-23T06:17:06.298Z,59.00
2018-01-23T06:19:33.833Z,59.00
2018-01-23T06:22:01.363Z,59.60
2018-01-23T06:24:28.902Z,59.00
2018-01-23T06:26:57.177Z,58.90
2018-01-23T06:29:25.589Z,59.00
2018-01-23T06:31:53.091Z,58.90
2018-01-23T06:34:20.613Z,59.60
2018-01-23T06:36:48.204Z,58.90
2018-01-23T06:39:15.717Z,58.90
2018-01-23T06:41:43.254Z,58.70
2018-01-23T06:44:11.589Z,58.80
2018-01-23T06:46:39.101Z,59.40
2018-01-23T06:49:07.365Z,58.80
2018-01-23T06:51:35.662Z,58.90
2018-01-23T06:54:03.179Z,58.90
2018-01-23T06:56:30.746Z,58.90
2018-01-23T06:58:58.324Z,58.80
2018-01-23T07:01:26.609Z,58.90
2018-01-23T07:03:54.933Z,59.50
2018-01-23T07:06:22.884Z,58.80
2018-01-23T07:08:51.569Z,58.80
2018-01-23T07:11:19.097Z,58.80
2018-01-23T07:13:46.649Z,58.80
2018-01-23T07:16:14.959Z,58.80
2018-01-23T07:18:42.511Z,58.80
2018-01-23T07:21:10.049Z,58.80
2018-01-23T07:36:42.001Z,57.40
2018-01-23T07:39:10.306Z,57.80
2018-01-23T07:41:37.854Z,57.80
2018-01-23T07:44:05.467Z,58.00
2018-01-23T07:46:33.070Z,58.10
2018-01-23T07:49:01.338Z,58.30
2018-01-23T07:51:29.668Z,58.50
2018-01-23T07:53:57.286Z,58.40
2018-01-23T07:56:24.845Z,58.50
2018-01-23T07:58:52.385Z,58.60
2018-01-23T08:01:20.002Z,58.60
2018-01-23T08:03:47.520Z,59.00
2018-01-23T08:06:15.851Z,58.70
2018-01-23T08:08:43.373Z,58.70
2018-01-23T08:11:10.947Z,58.70
2018-01-23T08:13:38.502Z,58.90
2018-01-23T08:16:06.080Z,58.80
2018-01-23T08:18:33.593Z,58.80
2018-01-23T08:21:01.938Z,58.80
2018-01-23T08:23:29.475Z,58.80
2018-01-23T08:25:57.122Z,58.80
2018-01-23T08:28:24.701Z,58.90
2018-01-23T08:30:52.260Z,58.90
2018-01-23T08:33:19.753Z,58.90
2018-01-23T08:35:47.318Z,58.90
2018-01-23T08:38:14.855Z,58.90
2018-01-23T08:40:42.361Z,58.90
2018-01-23T08:43:09.911Z,58.90
2018-01-23T08:45:37.504Z,58.80
2018-01-23T08:48:05.138Z,59.00
2018-01-23T08:50:33.459Z,59.10
2018-01-23T08:53:00.970Z,58.90
2018-01-23T08:55:29.238Z,58.70
2018-01-23T08:57:57.675Z,59.10
2018-01-23T09:00:26.043Z,59.10
2018-01-23T09:02:53.553Z,59.00
2018-01-23T09:05:21.185Z,59.80
2018-01-23T09:07:48.698Z,57.00
2018-01-23T09:10:16.211Z,59.10
2018-01-23T09:12:43.796Z,59.10
2018-01-23T09:15:12.069Z,58.90
2018-01-23T09:17:40.369Z,59.80
2018-01-23T09:20:07.919Z,59.10
2018-01-23T09:22:35.550Z,59.20
2018-01-23T09:25:03.086Z,59.30
2018-01-23T09:27:30.697Z,59.30
2018-01-23T09:29:59.032Z,59.40
2018-01-23T09:32:26.560Z,59.40
2018-01-23T09:34:54.082Z,59.40
2018-01-23T09:37:21.633Z,59.40
2018-01-23T09:39:49.156Z,59.40
2018-01-23T09:42:16.685Z,59.50
2018-01-23T09:44:44.267Z,59.40
2018-01-23T09:47:11.779Z,59.40
2018-01-23T09:49:40.101Z,59.50
2018-01-23T09:52:07.645Z,59.40
2018-01-23T09:54:35.154Z,59.40
2018-01-23T09:57:02.696Z,59.50
2018-01-23T09:59:30.301Z,59.50
2018-01-23T10:01:58.578Z,59.60
2018-01-23T10:04:26.080Z,59.50
2018-01-23T10:06:53.621Z,59.60
2018-01-23T10:09:21.155Z,59.60
2018-01-23T10:11:48.775Z,59.70
2018-01-23T10:14:16.323Z,59.60
2018-01-23T10:16:43.849Z,59.60
2018-01-23T10:19:12.317Z,59.70
2018-01-23T10:21:40.652Z,59.70
2018-01-23T10:24:08.285Z,59.60
2018-01-23T10:26:35.793Z,59.60
2018-01-23T10:29:03.387Z,59.70
2018-01-23T10:31:31.803Z,59.60
2018-01-23T10:33:59.339Z,59.60
2018-01-23T10:36:26.920Z,59.60
2018-01-23T10:38:54.450Z,59.60
2018-01-23T10:41:22.809Z,59.70
2018-01-23T10:43:52.216Z,59.80
2018-01-23T10:46:20.544Z,59.70
2018-01-23T10:48:48.791Z,59.60
2018-01-23T10:51:17.102Z,59.60
2018-01-23T10:53:44.608Z,59.60
2018-01-23T10:56:13.007Z,59.70
2018-01-23T10:58:40.585Z,59.70
2018-01-23T11:01:08.105Z,59.60
2018-01-23T11:03:35.685Z,59.60
2018-01-23T11:06:04.005Z,59.60
2018-01-23T11:08:32.000Z,59.60
2018-01-23T11:10:59.537Z,59.60
2018-01-23T11:13:27.169Z,59.60
2018-01-23T11:15:54.717Z,59.60
2018-01-23T11:18:23.009Z,59.70
2018-01-23T11:20:50.563Z,59.60
2018-01-23T11:23:18.157Z,59.70
2018-01-23T11:25:45.728Z,59.60
2018-01-23T11:28:13.308Z,59.70
2018-01-23T11:30:40.843Z,59.60
2018-01-23T11:33:08.397Z,59.60
2018-01-23T11:35:35.940Z,59.60
2018-01-23T11:38:03.471Z,59.60
2018-01-23T11:40:30.978Z,59.60
2018-01-23T11:42:58.521Z,59.60
2018-01-23T11:45:26.053Z,59.60
2018-01-23T11:47:53.582Z,59.50
2018-01-23T11:50:21.128Z,59.50
2018-01-23T11:52:48.681Z,59.50
2018-01-23T11:55:16.207Z,59.40
2018-01-23T11:57:43.730Z,59.40
2018-01-23T12:00:11.226Z,59.50
2018-01-23T12:02:38.753Z,59.40
2018-01-23T12:05:07.147Z,60.00
2018-01-23T12:07:34.650Z,59.40
2018-01-23T12:10:02.169Z,59.40
2018-01-23T12:12:30.258Z,59.40
2018-01-23T12:14:57.909Z,59.30
2018-01-23T12:17:25.433Z,59.30
2018-01-23T12:19:53.769Z,57.40
2018-01-23T12:22:21.334Z,57.30
2018-01-23T12:24:48.873Z,56.60
2018-01-23T12:27:16.434Z,58.40
2018-01-23T12:29:43.938Z,58.90
2018-01-23T12:32:11.557Z,59.00
2018-01-23T12:34:39.204Z,59.10
2018-01-23T12:37:06.718Z,59.00
2018-01-23T12:39:34.246Z,59.00
2018-01-23T12:42:01.902Z,59.10
2018-01-23T12:44:29.506Z,59.00
2018-01-23T12:46:57.015Z,59.00
2018-01-23T12:49:24.682Z,59.50
2018-01-23T12:51:52.203Z,59.00
2018-01-23T12:54:20.488Z,59.00
2018-01-23T12:56:48.820Z,59.00
2018-01-23T12:59:16.338Z,58.90
2018-01-23T13:01:43.868Z,58.90
2018-01-23T13:04:12.204Z,59.00
2018-01-23T13:06:39.710Z,58.90
2018-01-23T13:09:07.237Z,59.00
2018-01-23T13:11:39.198Z,59.00
2018-01-23T13:14:06.781Z,59.10
2018-01-23T13:16:34.317Z,59.10
2018-01-23T13:19:01.927Z,59.00
2018-01-23T13:21:30.321Z,59.00
2018-01-23T13:23:57.881Z,58.90
2018-01-23T13:26:25.434Z,59.00
2018-01-23T13:28:53.697Z,59.10
2018-01-23T13:31:22.981Z,59.00
2018-01-23T13:33:50.573Z,59.00
2018-01-23T13:36:18.143Z,58.90
2018-01-23T13:38:45.677Z,58.70
2018-01-23T13:41:13.300Z,58.80
2018-01-23T13:43:44.654Z,58.70
2018-01-23T13:46:12.650Z,58.80
2018-01-23T13:48:40.766Z,58.80
2018-01-23T13:51:08.304Z,59.00
2018-01-23T13:53:35.910Z,58.90
2018-01-23T13:56:09.210Z,59.00
2018-01-23T13:58:37.545Z,59.10
2018-01-23T14:01:11.499Z,59.00
2018-01-23T14:03:39.333Z,59.10
2018-01-23T14:06:07.598Z,59.10
2018-01-23T14:08:35.277Z,59.10
2018-01-23T14:11:04.834Z,59.20
2018-01-23T14:13:33.570Z,59.20
2018-01-23T14:16:01.149Z,59.10
2018-01-23T14:18:39.878Z,59.20
2018-01-23T14:21:07.436Z,58.70
2018-01-23T14:23:34.960Z,59.20
2018-01-23T14:26:03.664Z,59.20
2018-01-23T14:28:32.858Z,59.20
2018-01-23T14:31:00.499Z,59.30
2018-01-23T14:33:30.281Z,59.30
2018-01-23T14:35:58.653Z,59.20
2018-01-23T14:38:26.158Z,59.20
2018-01-23T14:40:53.698Z,59.90
2018-01-23T14:43:22.073Z,59.20
2018-01-23T14:45:50.405Z,59.30
2018-01-23T14:48:17.918Z,59.20
2018-01-23T14:50:45.473Z,59.30
2018-01-23T14:53:13.809Z,59.30
2018-01-23T14:55:41.329Z,59.30
2018-01-23T14:58:09.309Z,59.20
2018-01-23T15:00:36.903Z,59.20
2018-01-23T15:03:04.454Z,59.30
2018-01-23T15:05:32.023Z,59.30
2018-01-23T15:07:59.598Z,59.30
2018-01-23T15:10:27.133Z,59.30
2018-01-23T15:12:54.847Z,59.20
2018-01-23T15:15:22.361Z,59.30
2018-01-23T15:17:49.973Z,59.30
2018-01-23T15:20:18.297Z,59.30
2018-01-23T15:22:45.864Z,59.30
2018-01-23T15:25:13.420Z,59.30
2018-01-23T15:27:40.958Z,59.20
2018-01-23T15:30:08.499Z,59.40
2018-01-23T15:32:36.017Z,59.30
2018-01-23T15:35:03.677Z,59.40
2018-01-23T15:37:31.230Z,59.30
2018-01-23T15:39:58.953Z,59.40
2018-01-23T15:42:26.505Z,59.40
2018-01-23T15:44:54.075Z,59.40
2018-01-23T15:47:21.605Z,59.40
2018-01-23T15:49:49.939Z,59.50
2018-01-23T15:52:18.573Z,59.30
2018-01-23T15:54:46.102Z,59.40
2018-01-23T15:57:13.740Z,59.50
2018-01-23T15:59:41.244Z,59.80
2018-01-23T16:02:09.553Z,59.50
2018-01-23T16:04:37.116Z,59.40
2018-01-23T16:07:04.620Z,59.50
2018-01-23T16:09:34.935Z,59.60
2018-01-23T16:12:02.542Z,59.50
2018-01-23T16:14:30.116Z,59.50
2018-01-23T16:16:57.658Z,59.40
2018-01-23T16:19:26.062Z,59.60
2018-01-23T16:21:53.676Z,59.60
2018-01-23T16:24:21.174Z,60.10
2018-01-23T16:26:48.897Z,59.60
2018-01-23T16:29:16.405Z,59.60
2018-01-23T16:31:43.961Z,59.60
2018-01-23T16:34:11.534Z,59.60
2018-01-23T16:36:39.185Z,59.60
2018-01-23T16:39:06.725Z,59.60
2018-01-23T16:41:34.293Z,59.60
2018-01-23T16:44:01.883Z,59.60
2018-01-23T16:46:29.934Z,59.60
2018-01-23T16:48:57.485Z,59.60
2018-01-23T16:51:25.011Z,59.60
2018-01-23T16:53:53.317Z,59.60
2018-01-23T16:56:20.922Z,59.50
2018-01-23T16:58:49.268Z,59.60
2018-01-23T17:01:16.779Z,59.50
2018-01-23T17:03:44.341Z,59.60
2018-01-23T17:06:19.790Z,59.60
2018-01-23T17:08:47.993Z,59.50
2018-01-23T17:11:15.497Z,59.70
2018-01-23T17:13:43.736Z,59.60
2018-01-23T17:16:11.512Z,59.70
2018-01-23T17:18:39.013Z,59.60
2018-01-23T17:21:06.550Z,59.60
2018-01-23T17:23:35.318Z,59.60
2018-01-23T17:26:03.442Z,59.60
2018-01-23T17:28:30.985Z,59.60
2018-01-23T17:30:58.570Z,59.70
2018-01-23T17:33:26.866Z,59.70
2018-01-23T17:35:54.556Z,59.60
2018-01-23T17:38:23.350Z,59.60
2018-01-23T17:40:50.905Z,59.70
2018-01-23T17:43:18.627Z,59.70
2018-01-23T17:45:46.181Z,59.70
2018-01-23T17:48:13.734Z,59.70
2018-01-23T17:50:41.274Z,59.70
2018-01-23T17:53:08.858Z,59.70
2018-01-23T17:55:37.194Z,59.70
2018-01-23T17:58:04.762Z,59.70
2018-01-23T18:00:36.157Z,59.70
2018-01-23T18:03:04.577Z,59.70
2018-01-23T18:05:32.102Z,59.70
2018-01-23T18:08:00.511Z,59.60
2018-01-23T18:10:28.101Z,59.60
2018-01-23T18:12:55.691Z,59.70
2018-01-23T18:15:23.292Z,59.70
2018-01-23T18:17:50.870Z,59.70
2018-01-23T18:20:18.363Z,59.60
2018-01-23T18:22:45.911Z,59.70
2018-01-23T18:25:13.388Z,59.70
2018-01-23T18:27:41.673Z,59.70
2018-01-23T18:30:09.983Z,59.70
2018-01-23T18:32:37.458Z,59.70
2018-01-23T18:35:04.937Z,59.60
2018-01-23T18:37:32.444Z,59.60
2018-01-23T18:39:59.925Z,59.50
2018-01-23T18:42:27.915Z,59.60
2018-01-23T18:44:55.487Z,59.60
2018-01-23T18:47:22.969Z,59.60
2018-01-23T18:49:51.214Z,59.60
2018-01-23T18:52:18.754Z,59.60
2018-01-23T18:54:46.237Z,59.50
2018-01-23T18:57:16.476Z,59.50
2018-01-23T18:59:44.767Z,59.60
2018-01-23T19:02:13.008Z,59.60
2018-01-23T19:04:40.482Z,59.50
2018-01-23T19:07:08.016Z,59.50
2018-01-23T19:09:37.585Z,59.60
2018-01-23T19:12:05.076Z,59.60
2018-01-23T19:14:32.592Z,59.60
2018-01-23T19:17:00.096Z,59.60
2018-01-23T19:19:27.577Z,59.50
2018-01-23T19:21:55.106Z,59.60
2018-01-23T19:24:22.614Z,59.60
2018-01-23T19:26:50.874Z,59.40
2018-01-23T19:29:18.414Z,59.40
2018-01-23T19:31:46.039Z,59.50
2018-01-23T19:34:14.300Z,59.50
2018-01-23T19:36:42.573Z,59.40
2018-01-23T19:39:10.830Z,59.40
2018-01-23T19:41:38.302Z,59.40
2018-01-23T19:44:06.605Z,59.40
2018-01-23T19:46:34.239Z,59.30
2018-01-23T19:49:02.486Z,59.40
2018-01-23T19:51:30.044Z,59.40
2018-01-23T19:53:57.570Z,59.50
2018-01-23T19:56:25.082Z,59.50
2018-01-23T19:58:53.358Z,59.50
2018-01-23T20:01:20.930Z,59.50
2018-01-23T20:03:49.213Z,59.50
2018-01-23T20:06:16.754Z,59.40
2018-01-23T20:08:44.671Z,59.50
2018-01-23T20:11:12.158Z,60.20
2018-01-23T20:13:40.098Z,59.50
2018-01-23T20:16:07.964Z,59.50
2018-01-23T20:18:35.448Z,59.50
2018-01-23T20:21:02.959Z,59.50
2018-01-23T20:23:30.543Z,59.50
2018-01-23T20:25:58.030Z,59.50
2018-01-23T20:28:25.612Z,59.50
2018-01-23T20:30:53.100Z,59.50
2018-01-23T20:33:21.364Z,59.60
2018-01-23T20:35:49.781Z,59.60
2018-01-23T20:38:17.663Z,59.50
2018-01-23T20:40:45.175Z,59.50
2018-01-23T20:43:13.441Z,59.60
2018-01-23T20:45:41.726Z,59.60
2018-01-23T20:48:10.000Z,59.60
2018-01-23T20:50:38.307Z,59.60
2018-01-23T20:53:05.803Z,59.50
2018-01-23T20:55:33.288Z,59.60
2018-01-23T20:58:01.574Z,59.90
2018-01-23T21:00:29.094Z,59.50
2018-01-23T21:02:56.566Z,59.60
2018-01-23T21:05:24.137Z,59.70
2018-01-23T21:07:52.435Z,59.70
2018-01-23T21:10:19.963Z,59.60
2018-01-23T21:12:47.496Z,59.70
2018-01-23T21:15:15.011Z,59.60
2018-01-23T21:17:43.413Z,59.70
2018-01-23T21:20:12.785Z,59.60
2018-01-23T21:22:40.321Z,59.70
2018-01-23T21:25:07.804Z,59.70
2018-01-23T21:27:36.111Z,59.80
2018-01-23T21:30:03.616Z,59.70
2018-01-23T21:32:31.093Z,60.30
2018-01-23T21:34:59.382Z,59.70
2018-01-23T21:37:27.789Z,59.80
2018-01-23T21:39:55.501Z,59.70
2018-01-23T21:42:23.417Z,59.70
2018-01-23T21:44:50.899Z,60.30
2018-01-23T21:47:22.424Z,59.70
2018-01-23T21:49:49.986Z,57.90
2018-01-23T21:52:17.960Z,59.80
2018-01-23T21:54:45.639Z,59.70
2018-01-23T21:57:13.271Z,59.70
2018-01-23T21:59:40.906Z,59.70
2018-01-23T22:02:10.690Z,58.70
2018-01-23T22:04:38.233Z,58.80
2018-01-23T22:07:05.851Z,59.70
2018-01-23T22:09:33.461Z,59.70
2018-01-23T22:12:01.109Z,59.70
2018-01-23T22:14:28.660Z,59.80
2018-01-23T22:16:56.131Z,59.80
2018-01-23T22:19:23.699Z,59.70
2018-01-23T22:21:51.275Z,59.60
2018-01-23T22:24:18.807Z,59.80
2018-01-23T22:26:46.337Z,59.80
2018-01-23T22:29:14.716Z,59.80
2018-01-23T22:31:42.200Z,60.50
2018-01-23T22:47:11.471Z,58.50
2018-01-23T22:49:38.948Z,58.60
2018-01-23T22:52:06.451Z,58.80
2018-01-23T22:54:33.963Z,59.00
2018-01-23T22:57:01.439Z,59.20
2018-01-23T22:59:28.915Z,59.20
2018-01-23T23:01:56.428Z,59.30
2018-01-23T23:04:23.915Z,59.40
2018-01-23T23:06:51.398Z,59.40
2018-01-23T23:09:18.897Z,59.50
2018-01-23T23:11:46.391Z,59.60
2018-01-23T23:14:13.866Z,59.50
2018-01-23T23:16:41.385Z,59.60
2018-01-23T23:19:08.856Z,59.60
2018-01-23T23:21:36.363Z,59.70
2018-01-23T23:24:03.882Z,59.60
2018-01-23T23:26:31.364Z,59.60
2018-01-23T23:28:58.922Z,59.70
2018-01-23T23:31:27.261Z,59.20
2018-01-23T23:33:54.745Z,59.70
2018-01-23T23:36:22.234Z,59.70
2018-01-23T23:38:49.745Z,59.80
2018-01-23T23:41:17.701Z,59.80
2018-01-23T23:43:45.178Z,59.80
2018-01-23T23:46:12.719Z,59.80
2018-01-23T23:48:40.218Z,59.80
2018-01-23T23:51:07.690Z,59.80
2018-01-23T23:53:35.222Z,59.80
2018-01-23T23:56:02.754Z,59.30
2018-01-23T23:58:30.266Z,59.80
